CheckWX is a tool to help pilots better visualize weather data.  It is not intended as a substitute for an official pre-flight weather briefing.

05:23:07 UTC

KONT METAR
Ontario International Airport
Ontario, California, USA
Current

30 mins ago

KONT 200453Z 25004KT 10SM CLR 08/M02 A3011 RMK AO2 SLP199 T00831017
Observed
Feb-20 @ 04:53 UTC
Wind
  • 250° at 4 KTS
Visibility
16,093 meters
Flight Rules
VFR
Cloud Levels
  • Clear skies
Temperature
C / 46°F
Dewpoint
-2°C / 28°F
Humidity
50%
Altimeter
30.11" Hg
Pressure
1019.9 hPa
Previous

2 hours ago

KONT 200353Z 26008KT 10SM CLR 10/M02 A3010 RMK AO2 SLP196 T01001017
Observed
Feb-20 @ 03:53 UTC
Wind
  • 260° at 8 KTS
Visibility
16,093 meters
Flight Rules
VFR
Cloud Levels
  • Clear skies
Temperature
10°C / 50°F
Dewpoint
-2°C / 28°F
Humidity
43%
Altimeter
30.1" Hg
Pressure
1019.6 hPa
Previous

3 hours ago

KONT 200253Z 25007KT 10SM FEW055 11/M01 A3008 RMK AO2 SLP189 T01111011 53008
Observed
Feb-20 @ 02:53 UTC
Wind
  • 250° at 7 KTS
Visibility
16,093 meters
Flight Rules
VFR
Cloud Levels
  • Few at 5,500' AGL
Temperature
11°C / 52°F
Dewpoint
-1°C / 30°F
Humidity
44%
Altimeter
30.08" Hg
Pressure
1018.9 hPa